Time;durP1;ratioP1;P1;durP2;ratioP2;P2;SDS_P1;SDS_P2;PMS_P1;PMS_P2;Temp;Humidity;BMP_temperature;BMP_pressure;BME280_temperature;BME280_humidity;BME280_pressure;Samples;Min_cycle;Max_cycle;Signal;HPM_P1;HPM_P2
2022/01/17 00:00:31;;;;;;;4.97;1.40;;;8.50;84.90;;;;;;5079722;28;20026;-80
2022/01/17 00:02:59;;;;;;;5.70;1.52;;;8.40;84.80;;;;;;5077098;28;20096;-79
2022/01/17 00:05:26;;;;;;;6.63;1.50;;;8.50;84.70;;;;;;5074505;28;20028;-80
2022/01/17 00:07:51;;;;;;;6.68;1.50;;;8.50;84.60;;;;;;5082574;28;20482;-80
2022/01/17 00:10:17;;;;;;;4.53;1.40;;;8.40;84.40;;;;;;5080487;28;20031;-80
2022/01/17 00:12:47;;;;;;;3.58;1.52;;;8.40;84.20;;;;;;5067209;28;20056;-80
2022/01/17 00:15:56;;;;;;;6.03;1.55;;;8.50;84.20;;;;;;5066589;28;20040;-80
2022/01/17 00:20:40;;;;;;;6.50;1.40;;;8.50;83.90;;;;;;5070659;28;20041;-79
2022/01/17 00:23:06;;;;;;;4.63;1.70;;;8.50;83.80;;;;;;5078708;28;20095;-80
2022/01/17 00:25:32;;;;;;;3.72;1.33;;;8.50;83.80;;;;;;5071843;28;20016;-80
2022/01/17 00:27:57;;;;;;;5.35;1.98;;;8.50;83.70;;;;;;5056028;28;20115;-79
2022/01/17 00:30:23;;;;;;;4.95;1.60;;;8.50;83.70;;;;;;5069570;28;20044;-81
2022/01/17 00:32:48;;;;;;;7.55;1.95;;;8.50;83.60;;;;;;5069184;28;20028;-80
2022/01/17 00:35:15;;;;;;;6.20;1.60;;;8.50;83.40;;;;;;5069353;28;20375;-80
2022/01/17 00:37:41;;;;;;;8.27;1.90;;;8.50;83.30;;;;;;5056803;28;20013;-81
2022/01/17 00:40:07;;;;;;;8.45;2.00;;;8.50;83.50;;;;;;5054867;28;20391;-81
2022/01/17 00:42:33;;;;;;;5.07;1.77;;;8.50;83.80;;;;;;5056627;28;20033;-81
2022/01/17 00:45:01;;;;;;;6.28;1.80;;;8.50;83.10;;;;;;5063013;28;20838;-81
2022/01/17 00:47:27;;;;;;;7.22;1.73;;;8.40;83.10;;;;;;5065964;28;20016;-81
2022/01/17 00:49:52;;;;;;;5.95;1.90;;;8.50;83.20;;;;;;5070233;28;20043;-82
2022/01/17 00:52:18;;;;;;;7.13;2.00;;;8.50;83.20;;;;;;5067373;28;20041;-80
2022/01/17 00:54:43;;;;;;;5.90;2.03;;;8.60;83.30;;;;;;5068490;28;20024;-80
2022/01/17 00:57:10;;;;;;;6.05;1.92;;;8.60;83.20;;;;;;5065987;28;20154;-80
2022/01/17 00:59:36;;;;;;;8.50;2.33;;;8.60;83.20;;;;;;5066481;28;20173;-81
2022/01/17 01:02:02;;;;;;;7.47;2.20;;;8.60;83.10;;;;;;5062880;28;20168;-80
2022/01/17 01:04:27;;;;;;;8.68;3.10;;;8.60;83.10;;;;;;5063590;28;20012;-83
2022/01/17 01:06:53;;;;;;;6.85;2.53;;;8.60;83.00;;;;;;5068535;28;20048;-80
2022/01/17 01:09:18;;;;;;;6.78;2.75;;;8.60;83.10;;;;;;5061599;28;20383;-80
2022/01/17 01:11:44;;;;;;;7.57;2.90;;;8.60;83.10;;;;;;5069143;28;20032;-79
2022/01/17 01:14:09;;;;;;;5.93;2.30;;;8.60;83.10;;;;;;5069748;28;20028;-80
2022/01/17 01:16:36;;;;;;;7.05;2.67;;;8.60;83.20;;;;;;5067807;28;20489;-80
2022/01/17 01:29:32;;;;;;;6.80;2.38;;;8.60;83.30;;;;;;5083115;28;20039;-78
2022/01/17 01:32:05;;;;;;;6.03;1.95;;;8.60;83.30;;;;;;5070396;28;20029;-78
2022/01/17 01:34:52;;;;;;;6.88;2.25;;;8.60;83.10;;;;;;5065379;28;20023;-78
2022/01/17 01:37:17;;;;;;;8.30;2.00;;;8.60;83.10;;;;;;5068800;28;20355;-77
2022/01/17 01:39:43;;;;;;;7.38;1.80;;;8.60;83.10;;;;;;5064786;28;20024;-78
2022/01/17 01:42:14;;;;;;;5.45;1.98;;;8.60;83.00;;;;;;5069005;28;20084;-77
2022/01/17 01:44:40;;;;;;;6.65;1.98;;;8.50;82.90;;;;;;5068764;28;20483;-77
2022/01/17 01:47:06;;;;;;;5.95;2.30;;;8.50;82.80;;;;;;5067436;28;20060;-78
2022/01/17 01:49:31;;;;;;;8.57;2.17;;;8.50;82.70;;;;;;5068782;28;20103;-78
2022/01/17 01:51:57;;;;;;;8.20;2.13;;;8.50;82.70;;;;;;5063147;28;20041;-78
2022/01/17 01:54:22;;;;;;;6.70;2.00;;;8.50;82.60;;;;;;5069422;28;20032;-78
2022/01/17 01:56:49;;;;;;;5.18;1.88;;;8.50;82.50;;;;;;5060982;28;20040;-78
2022/01/17 01:59:19;;;;;;;5.40;1.70;;;8.50;82.50;;;;;;5069949;28;20017;-78
2022/01/17 02:01:46;;;;;;;7.45;2.00;;;8.50;82.50;;;;;;5070251;28;20043;-78
2022/01/17 02:04:13;;;;;;;6.72;1.98;;;8.40;82.40;;;;;;5064571;28;20471;-79
2022/01/17 02:06:40;;;;;;;7.70;1.67;;;8.50;82.30;;;;;;5065564;28;20024;-79
2022/01/17 02:09:05;;;;;;;6.05;1.95;;;8.40;82.10;;;;;;5052022;28;20025;-79
2022/01/17 02:11:35;;;;;;;8.48;2.17;;;8.50;82.10;;;;;;5067669;28;20085;-79
2022/01/17 02:14:02;;;;;;;7.32;1.85;;;8.40;81.90;;;;;;5062596;28;20764;-79
2022/01/17 02:16:27;;;;;;;6.13;1.88;;;8.40;81.80;;;;;;5071905;28;20032;-78
2022/01/17 02:18:53;;;;;;;5.72;1.60;;;8.40;81.60;;;;;;5070401;28;20021;-78
2022/01/17 02:21:31;;;;;;;6.30;1.50;;;8.40;81.40;;;;;;5072655;28;20111;-78
2022/01/17 02:23:57;;;;;;;5.28;1.45;;;8.30;81.30;;;;;;5052342;28;20106;-78
2022/01/17 02:26:23;;;;;;;5.95;1.77;;;8.30;81.50;;;;;;5055151;28;20834;-79
2022/01/17 02:28:52;;;;;;;4.63;1.55;;;8.40;81.50;;;;;;5085817;28;20055;-80
2022/01/17 02:31:20;;;;;;;5.53;1.85;;;8.30;81.40;;;;;;5071361;28;20115;-79
2022/01/17 02:33:45;;;;;;;6.60;1.80;;;8.40;81.20;;;;;;5071353;28;20028;-80
2022/01/17 02:36:11;;;;;;;4.18;1.38;;;8.30;81.00;;;;;;5071563;28;20040;-79
2022/01/17 02:38:41;;;;;;;5.13;1.40;;;8.40;81.10;;;;;;5063615;28;20150;-79
2022/01/17 02:41:07;;;;;;;6.93;1.60;;;8.30;81.00;;;;;;5066290;28;20127;-80
2022/01/17 02:43:34;;;;;;;7.88;1.60;;;8.30;81.00;;;;;;5070919;28;20364;-79
2022/01/17 02:48:29;;;;;;;5.43;1.40;;;8.20;80.80;;;;;;5068310;28;20025;-79
2022/01/17 02:50:57;;;;;;;6.43;1.77;;;8.30;80.80;;;;;;5054716;28;20040;-80
2022/01/17 02:53:23;;;;;;;5.65;1.70;;;8.30;80.70;;;;;;5071001;28;20031;-81
2022/01/17 02:56:09;;;;;;;7.45;1.60;;;8.20;80.60;;;;;;5054738;28;20029;-81
2022/01/17 02:58:36;;;;;;;6.25;1.75;;;8.20;80.50;;;;;;5070994;28;20576;-80
2022/01/17 03:01:14;;;;;;;6.95;1.60;;;8.20;80.50;;;;;;5069581;28;20486;-80
2022/01/17 03:03:42;;;;;;;8.00;1.67;;;8.20;80.30;;;;;;5071306;28;20043;-81
2022/01/17 03:06:08;;;;;;;3.92;1.30;;;8.20;80.40;;;;;;5071478;28;20019;-80
2022/01/17 03:08:35;;;;;;;6.05;1.77;;;8.10;80.40;;;;;;5071522;28;20537;-81
2022/01/17 03:11:05;;;;;;;4.47;1.45;;;8.10;80.40;;;;;;5067624;28;20029;-81
2022/01/17 03:13:33;;;;;;;4.88;1.40;;;8.10;80.40;;;;;;5071284;28;20025;-80
2022/01/17 03:16:02;;;;;;;6.55;1.50;;;8.10;80.40;;;;;;5062873;28;20035;-79
2022/01/17 03:18:32;;;;;;;5.88;1.60;;;8.10;80.50;;;;;;5067297;28;20635;-80
2022/01/17 03:20:59;;;;;;;7.88;1.98;;;8.10;80.40;;;;;;5064483;28;20032;-80
2022/01/17 03:23:25;;;;;;;6.95;1.45;;;8.00;80.30;;;;;;5077510;28;20886;-80
2022/01/17 03:25:51;;;;;;;6.25;1.40;;;8.10;80.40;;;;;;5075050;28;20051;-81
2022/01/17 03:28:16;;;;;;;6.15;1.42;;;8.10;80.40;;;;;;5067714;28;20051;-80
2022/01/17 03:30:42;;;;;;;6.75;1.52;;;8.00;80.20;;;;;;5070953;28;20036;-81
2022/01/17 03:33:10;;;;;;;6.05;1.50;;;8.00;80.20;;;;;;5058923;28;20062;-81
2022/01/17 03:35:38;;;;;;;4.82;1.58;;;8.00;80.30;;;;;;5068157;28;20020;-81
2022/01/17 03:38:04;;;;;;;6.22;1.45;;;7.90;80.30;;;;;;5071430;28;20019;-80
2022/01/17 03:40:30;;;;;;;7.30;1.95;;;8.00;81.00;;;;;;5052073;28;20095;-81
2022/01/17 03:42:55;;;;;;;6.82;1.70;;;7.90;80.30;;;;;;5055713;28;20460;-82
2022/01/17 03:45:21;;;;;;;5.50;1.52;;;7.90;80.40;;;;;;5071337;28;20112;-81
2022/01/17 03:47:50;;;;;;;6.22;1.45;;;7.80;80.40;;;;;;5063741;28;20033;-80
2022/01/17 03:50:19;;;;;;;6.63;1.60;;;7.90;80.40;;;;;;5064940;28;20052;-80
2022/01/17 03:52:44;;;;;;;5.78;1.67;;;7.80;80.50;;;;;;5070773;28;20614;-80
2022/01/17 03:55:13;;;;;;;6.70;1.67;;;7.80;80.50;;;;;;5071154;28;20147;-80
2022/01/17 03:57:41;;;;;;;4.93;1.60;;;7.70;80.40;;;;;;5063076;28;20033;-80
2022/01/17 04:00:11;;;;;;;6.75;1.60;;;7.70;80.60;;;;;;5070651;28;20028;-79
2022/01/17 04:02:36;;;;;;;6.43;1.58;;;7.70;80.60;;;;;;5066208;28;20036;-79
2022/01/17 04:05:02;;;;;;;9.48;1.92;;;7.60;80.60;;;;;;5070544;28;20077;-83
2022/01/17 04:07:27;;;;;;;6.75;1.70;;;7.60;80.70;;;;;;5068917;28;20039;-82
2022/01/17 04:09:53;;;;;;;5.05;1.30;;;7.60;80.80;;;;;;5051669;28;20025;-83
2022/01/17 04:12:18;;;;;;;8.55;2.05;;;7.60;80.80;;;;;;5058057;28;20117;-82
2022/01/17 04:14:44;;;;;;;5.07;1.38;;;7.50;80.70;;;;;;5070138;28;20134;-83
2022/01/17 04:17:10;;;;;;;8.27;1.60;;;7.50;80.90;;;;;;5063209;28;20028;-82
2022/01/17 04:19:35;;;;;;;6.45;1.42;;;7.50;81.00;;;;;;5069925;28;20111;-82
2022/01/17 04:22:01;;;;;;;8.52;2.03;;;7.40;81.00;;;;;;5062436;28;20021;-82
2022/01/17 04:24:27;;;;;;;8.55;1.95;;;7.40;80.90;;;;;;5074758;28;20032;-82
2022/01/17 04:26:53;;;;;;;8.93;1.73;;;7.40;81.10;;;;;;5079531;28;20519;-82
2022/01/17 04:29:20;;;;;;;9.35;1.70;;;7.40;81.10;;;;;;5066925;28;20024;-82
2022/01/17 04:31:46;;;;;;;7.43;1.67;;;7.30;81.10;;;;;;5069092;28;20032;-82
2022/01/17 04:34:12;;;;;;;5.30;1.33;;;7.30;81.10;;;;;;5070547;28;20550;-82
2022/01/17 04:36:37;;;;;;;6.43;1.60;;;7.30;81.20;;;;;;5065822;28;20096;-82
2022/01/17 04:39:03;;;;;;;8.20;1.60;;;7.30;81.20;;;;;;5062681;28;20021;-82
2022/01/17 04:41:37;;;;;;;5.60;1.77;;;7.30;81.30;;;;;;5069209;28;20028;-83
2022/01/17 04:45:07;;;;;;;8.95;2.22;;;7.30;81.30;;;;;;5061311;28;20033;-83
2022/01/17 04:46:49;;;;;;;5.25;1.50;;;7.20;81.10;;;;;;5069768;28;20364;-83
2022/01/17 04:49:15;;;;;;;7.22;1.67;;;7.20;81.20;;;;;;5067965;28;20029;-80
2022/01/17 04:51:41;;;;;;;7.80;1.52;;;7.20;81.30;;;;;;5060794;28;20065;-80
2022/01/17 04:54:38;;;;;;;8.52;1.65;;;7.20;81.30;;;;;;5070411;28;20048;-80
2022/01/17 04:56:57;;;;;;;6.60;1.50;;;7.20;81.50;;;;;;5069364;28;20102;-79
2022/01/17 04:59:23;;;;;;;5.65;1.70;;;7.20;81.40;;;;;;5069623;28;20032;-80
2022/01/17 05:01:48;;;;;;;5.60;1.70;;;7.20;81.60;;;;;;5065628;28;20029;-80
2022/01/17 05:04:14;;;;;;;4.97;1.63;;;7.20;81.60;;;;;;5066286;28;20067;-78
2022/01/17 05:06:39;;;;;;;5.80;1.60;;;7.20;81.70;;;;;;5056190;28;20055;-79
2022/01/17 05:09:05;;;;;;;7.65;1.98;;;7.20;81.80;;;;;;5050013;28;20116;-79
2022/01/17 05:11:31;;;;;;;6.05;1.80;;;7.20;81.80;;;;;;5060778;28;20032;-79
2022/01/17 05:13:57;;;;;;;7.07;2.00;;;7.20;81.80;;;;;;5068538;28;20019;-78
2022/01/17 05:16:31;;;;;;;4.72;1.60;;;7.20;81.90;;;;;;5068438;28;20064;-79
2022/01/17 05:21:41;;;;;;;6.60;1.73;;;7.20;82.00;;;;;;5066614;28;20040;-79
2022/01/17 05:24:06;;;;;;;7.47;1.83;;;7.20;82.10;;;;;;5073363;28;20024;-80
2022/01/17 05:26:32;;;;;;;4.55;1.50;;;7.20;82.20;;;;;;5072083;28;20074;-79
2022/01/17 05:28:57;;;;;;;3.75;1.30;;;7.30;82.30;;;;;;5067725;28;20021;-79
2022/01/17 05:31:23;;;;;;;9.20;2.13;;;7.30;82.30;;;;;;5065628;28;20394;-79
2022/01/17 05:33:48;;;;;;;5.15;1.73;;;7.20;82.20;;;;;;5067646;28;20032;-79
2022/01/17 05:36:14;;;;;;;4.43;1.60;;;7.20;82.30;;;;;;5063819;28;20471;-80
2022/01/17 05:38:39;;;;;;;5.65;2.15;;;7.20;82.40;;;;;;5049697;28;20029;-80
2022/01/17 05:41:05;;;;;;;7.35;1.60;;;7.20;82.50;;;;;;5061945;28;20060;-81
2022/01/17 05:43:30;;;;;;;8.25;1.85;;;7.20;82.60;;;;;;5061733;28;20111;-81
2022/01/17 05:45:56;;;;;;;5.55;1.75;;;7.20;82.60;;;;;;5068575;28;20023;-81
2022/01/17 05:48:22;;;;;;;6.90;2.03;;;7.20;82.70;;;;;;5070215;28;20027;-81
2022/01/17 05:50:47;;;;;;;6.38;1.85;;;7.20;82.70;;;;;;5068417;28;20047;-81
2022/01/17 05:53:14;;;;;;;7.97;2.13;;;7.20;82.70;;;;;;5062907;28;20035;-79
2022/01/17 05:55:40;;;;;;;7.40;2.20;;;7.20;82.90;;;;;;5066549;28;20035;-80
2022/01/17 05:58:06;;;;;;;5.47;1.70;;;7.10;82.90;;;;;;5062612;28;20028;-81
2022/01/17 06:00:32;;;;;;;7.43;1.92;;;7.10;83.00;;;;;;5058722;28;20067;-79
2022/01/17 06:02:57;;;;;;;3.90;1.92;;;7.10;83.10;;;;;;5070888;28;20020;-78
2022/01/17 06:05:23;;;;;;;6.93;1.85;;;7.10;83.20;;;;;;5073624;28;20058;-78
2022/01/17 06:07:49;;;;;;;6.40;2.03;;;7.20;83.30;;;;;;5070156;28;20035;-78
2022/01/17 06:10:14;;;;;;;5.85;2.50;;;7.20;83.40;;;;;;5074223;28;20028;-79
2022/01/17 06:12:40;;;;;;;7.47;2.30;;;7.20;83.30;;;;;;5071617;28;20032;-82
2022/01/17 06:15:06;;;;;;;6.63;2.30;;;7.20;83.40;;;;;;5066900;28;20093;-81
2022/01/17 06:17:31;;;;;;;5.93;2.15;;;7.10;83.40;;;;;;5073768;28;20166;-82
2022/01/17 06:19:57;;;;;;;8.43;2.38;;;7.20;83.60;;;;;;5073279;28;20024;-79
2022/01/17 06:22:22;;;;;;;5.40;2.20;;;7.20;84.20;;;;;;5075753;28;20154;-80
2022/01/17 06:24:48;;;;;;;8.75;3.03;;;7.20;83.60;;;;;;5072019;28;20016;-80
2022/01/17 06:27:13;;;;;;;8.70;2.78;;;7.10;83.60;;;;;;5079364;28;20494;-80
2022/01/17 06:29:39;;;;;;;11.50;2.95;;;7.10;83.70;;;;;;5074870;28;20035;-80
2022/01/17 06:32:05;;;;;;;12.20;3.60;;;7.10;83.80;;;;;;5072943;28;20036;-82
2022/01/17 06:34:30;;;;;;;8.77;3.17;;;7.20;83.90;;;;;;5072026;28;20123;-81
2022/01/17 06:36:56;;;;;;;9.15;3.65;;;7.20;83.90;;;;;;5077233;28;20028;-80
2022/01/17 06:39:21;;;;;;;7.68;3.10;;;7.20;84.00;;;;;;5073188;28;20024;-80
2022/01/17 06:41:47;;;;;;;8.45;3.40;;;7.10;83.90;;;;;;5073159;28;20040;-90
2022/01/17 06:44:13;;;;;;;8.90;3.63;;;7.10;84.10;;;;;;5069472;28;20063;-82
2022/01/17 06:46:38;;;;;;;10.70;4.22;;;7.10;84.00;;;;;;5074744;28;20552;-81
2022/01/17 06:49:04;;;;;;;9.25;3.97;;;7.00;84.70;;;;;;5079530;28;20020;-81
2022/01/17 06:51:30;;;;;;;11.45;4.85;;;7.00;84.20;;;;;;5075398;28;20033;-79
2022/01/17 06:53:55;;;;;;;11.88;4.28;;;6.90;84.40;;;;;;5072295;28;20028;-79
2022/01/17 06:56:21;;;;;;;10.23;4.57;;;6.90;84.70;;;;;;5071356;28;20574;-78
2022/01/17 06:58:47;;;;;;;11.07;4.65;;;6.90;84.80;;;;;;5076431;28;20081;-80
2022/01/17 07:01:14;;;;;;;13.57;5.18;;;6.90;84.90;;;;;;5070102;28;20029;-77
2022/01/17 07:03:40;;;;;;;13.55;5.30;;;6.90;84.90;;;;;;5066665;28;20403;-79
2022/01/17 07:06:06;;;;;;;11.52;4.53;;;6.90;85.00;;;;;;5065695;28;20051;-79
2022/01/17 07:08:32;;;;;;;11.93;5.13;;;6.90;85.10;;;;;;5063884;28;20479;-80
2022/01/17 07:10:57;;;;;;;12.50;6.05;;;6.90;85.20;;;;;;5065303;28;20028;-81
2022/01/17 07:13:23;;;;;;;11.30;5.47;;;6.90;85.20;;;;;;5075293;28;20036;-79
2022/01/17 07:15:49;;;;;;;16.60;6.78;;;6.90;85.30;;;;;;5074667;28;20047;-79
2022/01/17 07:18:14;;;;;;;11.63;6.40;;;6.90;85.20;;;;;;5072357;28;20482;-80
2022/01/17 07:20:40;;;;;;;13.90;6.10;;;6.90;85.30;;;;;;5071695;28;20027;-77
2022/01/17 07:23:05;;;;;;;13.80;7.03;;;6.90;85.50;;;;;;5074913;28;20032;-76
2022/01/17 07:25:31;;;;;;;10.70;5.90;;;6.90;85.60;;;;;;5079341;28;20442;-76
2022/01/17 07:27:57;;;;;;;13.90;7.45;;;6.90;85.70;;;;;;5075788;28;20099;-78
2022/01/17 07:30:24;;;;;;;11.02;6.22;;;7.00;85.70;;;;;;5067587;28;20145;-75
2022/01/17 07:32:49;;;;;;;11.70;5.80;;;6.90;85.70;;;;;;5073357;28;20114;-74
2022/01/17 07:35:15;;;;;;;12.32;7.03;;;6.90;85.70;;;;;;5061956;28;20422;-77
2022/01/17 07:37:41;;;;;;;9.80;6.78;;;7.00;85.70;;;;;;5068103;28;20058;-74
2022/01/17 07:40:07;;;;;;;13.43;7.25;;;7.00;85.80;;;;;;5067197;28;20036;-74
2022/01/17 07:42:34;;;;;;;15.93;8.63;;;7.00;85.90;;;;;;5070886;28;20020;-74
2022/01/17 07:45:08;;;;;;;14.73;7.88;;;7.00;86.00;;;;;;5068462;28;20048;-76
2022/01/17 07:50:17;;;;;;;9.48;5.93;;;7.00;86.20;;;;;;5061744;28;20634;-76
2022/01/17 07:52:42;;;;;;;15.40;8.18;;;7.00;86.20;;;;;;5067290;28;20039;-75
2022/01/17 07:55:10;;;;;;;12.20;6.65;;;7.00;86.10;;;;;;5064314;28;20459;-76
2022/01/17 07:57:37;;;;;;;9.70;5.80;;;7.10;86.10;;;;;;5067154;28;20063;-76
2022/01/17 08:00:09;;;;;;;16.15;7.90;;;7.10;86.10;;;;;;5058937;28;20059;-76
2022/01/17 08:02:34;;;;;;;12.13;6.83;;;7.10;86.00;;;;;;5063932;28;20024;-76
2022/01/17 08:05:00;;;;;;;17.35;8.68;;;7.10;86.00;;;;;;5063271;28;20051;-74
2022/01/17 08:07:26;;;;;;;14.75;7.63;;;7.10;86.10;;;;;;5066171;28;20098;-75
2022/01/17 08:09:51;;;;;;;14.07;7.68;;;7.10;86.10;;;;;;5068216;28;20032;-76
2022/01/17 08:12:17;;;;;;;12.40;7.68;;;7.20;86.20;;;;;;5064650;28;20028;-77
2022/01/17 08:14:42;;;;;;;13.48;8.02;;;7.20;86.10;;;;;;5065510;28;20028;-76
2022/01/17 08:17:08;;;;;;;15.20;8.10;;;7.20;86.10;;;;;;5068226;28;20021;-76
2022/01/17 08:19:34;;;;;;;13.93;6.60;;;7.20;86.20;;;;;;5063342;28;20434;-76
2022/01/17 08:22:02;;;;;;;10.43;6.20;;;7.20;86.20;;;;;;5068013;28;20107;-76
2022/01/17 08:24:28;;;;;;;15.02;7.78;;;7.20;86.20;;;;;;5069837;28;20111;-77
2022/01/17 08:26:54;;;;;;;14.25;6.85;;;7.20;86.20;;;;;;5068515;28;20176;-80
2022/01/17 08:29:22;;;;;;;11.27;6.57;;;7.20;86.30;;;;;;5063582;28;20017;-83
2022/01/17 08:31:48;;;;;;;13.38;7.30;;;7.20;86.20;;;;;;5063600;28;20036;-80
2022/01/17 08:34:15;;;;;;;11.10;6.82;;;7.20;86.30;;;;;;5068172;28;20437;-81
2022/01/17 08:36:40;;;;;;;13.23;6.47;;;7.20;86.30;;;;;;5066003;28;20036;-81
2022/01/17 08:39:07;;;;;;;13.90;6.45;;;7.30;86.30;;;;;;5058539;28;20032;-78
2022/01/17 08:41:33;;;;;;;15.57;7.38;;;7.30;86.30;;;;;;5062513;28;20037;-80
2022/01/17 08:43:58;;;;;;;16.45;8.45;;;7.30;86.30;;;;;;5068721;28;20035;-79
2022/01/17 08:46:24;;;;;;;16.02;6.90;;;7.40;86.20;;;;;;5063917;28;20926;-77
2022/01/17 08:48:51;;;;;;;11.65;6.75;;;7.40;86.20;;;;;;5064618;28;20857;-77
2022/01/17 08:51:17;;;;;;;14.25;7.60;;;7.30;86.20;;;;;;5057758;28;20037;-76
2022/01/17 08:53:44;;;;;;;11.38;6.82;;;7.30;86.20;;;;;;5054105;28;20036;-77
2022/01/17 08:56:10;;;;;;;17.40;7.85;;;7.40;86.30;;;;;;5061836;28;20025;-79
2022/01/17 08:58:36;;;;;;;11.02;5.60;;;7.40;86.30;;;;;;5067401;28;20529;-79
2022/01/17 09:01:01;;;;;;;10.70;5.80;;;7.40;86.30;;;;;;5066490;28;20468;-80
2022/01/17 09:03:27;;;;;;;10.43;4.82;;;7.40;86.20;;;;;;5067184;28;20021;-77
2022/01/17 09:05:53;;;;;;;8.10;4.40;;;7.40;86.20;;;;;;5066578;28;20036;-81
2022/01/17 09:08:19;;;;;;;12.63;6.05;;;7.40;86.20;;;;;;5060953;28;20074;-77
2022/01/17 09:10:46;;;;;;;13.73;5.68;;;7.50;86.20;;;;;;5061373;28;20110;-76
2022/01/17 09:13:12;;;;;;;15.65;6.43;;;7.50;86.80;;;;;;5066149;28;20012;-77
2022/01/17 09:15:38;;;;;;;14.60;6.63;;;7.50;86.10;;;;;;5058110;28;20040;-76
2022/01/17 09:18:04;;;;;;;13.50;5.82;;;7.50;86.10;;;;;;5062187;28;20371;-81
2022/01/17 09:20:32;;;;;;;15.43;6.50;;;7.60;86.10;;;;;;5062977;28;20032;-78
2022/01/17 09:22:58;;;;;;;14.32;5.80;;;7.60;86.10;;;;;;5068636;28;20129;-80
2022/01/17 09:25:24;;;;;;;13.45;5.15;;;7.60;86.10;;;;;;5074358;28;20537;-78
2022/01/17 09:27:49;;;;;;;10.13;4.45;;;7.60;86.10;;;;;;5066125;28;20037;-79
2022/01/17 09:30:15;;;;;;;9.48;4.72;;;7.70;86.10;;;;;;5062864;28;20024;-78
2022/01/17 09:32:42;;;;;;;11.55;4.80;;;7.70;86.00;;;;;;5067467;28;20044;-78
2022/01/17 09:35:11;;;;;;;13.23;5.20;;;7.70;85.90;;;;;;5068968;28;20020;-77
2022/01/17 09:37:37;;;;;;;15.20;5.00;;;7.80;85.90;;;;;;5058528;28;20470;-77
2022/01/17 09:40:04;;;;;;;10.52;4.13;;;7.80;85.90;;;;;;5062438;28;20126;-78
2022/01/17 09:42:35;;;;;;;9.75;3.88;;;7.80;85.80;;;;;;5064105;28;20025;-78
2022/01/17 09:45:02;;;;;;;12.35;4.68;;;7.80;85.80;;;;;;5068283;28;20121;-77
2022/01/17 09:47:27;;;;;;;11.57;4.10;;;7.90;85.80;;;;;;5069263;28;20024;-79
2022/01/17 09:49:56;;;;;;;11.32;4.60;;;7.90;85.70;;;;;;5065941;28;20028;-77
2022/01/17 09:52:34;;;;;;;10.60;4.30;;;7.90;85.70;;;;;;5064083;28;20033;-78
2022/01/17 09:55:22;;;;;;;11.65;4.10;;;7.90;85.80;;;;;;5059789;28;20023;-79
2022/01/17 09:57:53;;;;;;;13.40;4.40;;;7.90;85.70;;;;;;5067811;28;20066;-79
2022/01/17 10:00:26;;;;;;;8.40;3.75;;;7.90;85.60;;;;;;5068347;28;20632;-81
2022/01/17 10:02:55;;;;;;;;;;;8.00;85.60;;;;;;5062533;28;20430;-81
2022/01/17 10:05:22;;;;;;;9.23;3.65;;;8.00;85.60;;;;;;5067371;28;19915;-80
2022/01/17 10:07:50;;;;;;;7.70;3.67;;;8.00;85.60;;;;;;5065731;28;20032;-80
2022/01/17 10:10:15;;;;;;;11.63;3.80;;;8.00;85.60;;;;;;5062998;28;20043;-79
2022/01/17 10:12:41;;;;;;;10.63;3.45;;;8.10;85.60;;;;;;5067781;28;21616;-79
2022/01/17 10:15:12;;;;;;;11.05;3.83;;;8.10;85.60;;;;;;5065622;28;20028;-76
2022/01/17 10:17:45;;;;;;;11.93;3.75;;;8.10;85.50;;;;;;5064714;28;20083;-78
2022/01/17 10:20:14;;;;;;;9.50;3.20;;;8.10;85.50;;;;;;5060998;28;20025;-77
2022/01/17 10:22:54;;;;;;;10.80;3.40;;;8.10;85.60;;;;;;5068993;28;20031;-77
2022/01/17 10:36:50;;;;;;;12.55;3.10;;;8.20;85.50;;;;;;5074968;28;20075;-78
2022/01/17 10:39:16;;;;;;;11.50;3.05;;;8.20;85.60;;;;;;5064421;28;20024;-78
2022/01/17 10:41:41;;;;;;;9.68;2.85;;;8.30;85.70;;;;;;5069956;28;20039;-80
2022/01/17 10:44:07;;;;;;;11.85;3.50;;;8.30;85.70;;;;;;5066905;28;20043;-79
2022/01/17 10:46:33;;;;;;;12.73;3.70;;;8.30;85.70;;;;;;5061640;28;20120;-78
2022/01/17 10:48:59;;;;;;;12.68;3.22;;;8.30;85.70;;;;;;5064530;28;20096;-79
2022/01/17 10:51:34;;;;;;;14.65;3.70;;;8.30;85.70;;;;;;5069112;28;20032;-79
2022/01/17 10:54:17;;;;;;;10.93;2.70;;;8.40;85.80;;;;;;5058522;28;20031;-79
2022/01/17 10:56:50;;;;;;;17.67;3.13;;;8.40;85.80;;;;;;5060582;28;20028;-79
2022/01/17 10:59:27;;;;;;;12.93;3.42;;;8.40;85.80;;;;;;5066061;28;20051;-79
2022/01/17 11:01:54;;;;;;;9.38;3.13;;;8.40;85.80;;;;;;5062695;28;20031;-77
2022/01/17 11:04:36;;;;;;;8.95;2.97;;;8.50;85.80;;;;;;5068017;28;20020;-81
2022/01/17 11:07:05;;;;;;;14.10;3.05;;;8.50;85.80;;;;;;5070223;28;20025;-78
2022/01/17 11:09:39;;;;;;;14.20;2.90;;;8.60;85.80;;;;;;5068379;28;20024;-77
2022/01/17 11:12:13;;;;;;;7.93;2.20;;;8.60;85.70;;;;;;5069056;28;20110;-79
2022/01/17 11:14:39;;;;;;;9.85;2.55;;;8.70;85.70;;;;;;5070364;28;20399;-79
2022/01/17 11:17:21;;;;;;;11.85;2.90;;;8.70;85.60;;;;;;5066137;28;20028;-78
2022/01/17 11:20:04;;;;;;;8.63;2.63;;;8.70;85.60;;;;;;5061718;28;20088;-79
2022/01/17 11:22:30;;;;;;;12.18;2.92;;;8.80;85.60;;;;;;5065100;28;20491;-82
2022/01/17 11:24:57;;;;;;;14.68;3.20;;;8.80;85.60;;;;;;5070811;28;20048;-77
2022/01/17 11:27:23;;;;;;;8.25;2.45;;;8.80;85.60;;;;;;5061972;28;20021;-78
2022/01/17 11:29:50;;;;;;;9.55;3.05;;;8.80;85.60;;;;;;5061061;28;20031;-78
2022/01/17 11:32:16;;;;;;;11.88;3.08;;;8.90;85.60;;;;;;5071938;28;20624;-77
2022/01/17 11:34:43;;;;;;;16.33;3.10;;;8.90;85.50;;;;;;5077960;28;20024;-77
2022/01/17 11:37:10;;;;;;;12.40;2.40;;;8.90;85.50;;;;;;5077940;28;20020;-76
2022/01/17 11:39:54;;;;;;;10.35;2.80;;;9.00;86.20;;;;;;5075304;28;20027;-77
2022/01/17 11:42:30;;;;;;;12.48;3.28;;;9.00;85.40;;;;;;5070394;28;20032;-77
2022/01/17 11:44:55;;;;;;;13.80;3.08;;;9.00;85.30;;;;;;5073929;28;20031;-77
2022/01/17 11:47:47;;;;;;;13.02;2.95;;;9.00;85.30;;;;;;5077963;28;20024;-78
2022/01/17 11:50:31;;;;;;;10.68;2.80;;;9.00;85.30;;;;;;5058160;28;20037;-76
2022/01/17 11:53:18;;;;;;;8.65;2.33;;;9.10;85.30;;;;;;5057972;28;20086;-77
2022/01/17 11:55:49;;;;;;;12.35;2.70;;;9.10;85.30;;;;;;5048027;28;20064;-77
2022/01/17 11:58:24;;;;;;;12.20;2.95;;;9.10;85.20;;;;;;5062619;28;20032;-77
2022/01/17 12:00:59;;;;;;;10.98;3.28;;;9.20;85.30;;;;;;5061069;28;20024;-77
2022/01/17 12:03:27;;;;;;;10.10;2.60;;;9.20;85.90;;;;;;5062675;28;20100;-79
2022/01/17 12:05:55;;;;;;;9.55;2.47;;;9.20;85.20;;;;;;5059523;28;20082;-79
2022/01/17 12:08:23;;;;;;;11.20;2.67;;;9.20;85.10;;;;;;5070176;28;20074;-79
2022/01/17 12:10:57;;;;;;;10.18;3.10;;;9.30;85.10;;;;;;5062269;28;20021;-78
2022/01/17 12:13:38;;;;;;;11.27;2.88;;;9.30;85.00;;;;;;5063961;28;20546;-77
2022/01/17 12:16:30;;;;;;;11.82;2.67;;;9.30;84.90;;;;;;5065827;28;20157;-77
2022/01/17 12:18:59;;;;;;;10.40;2.70;;;9.30;84.80;;;;;;5060060;28;20021;-77
2022/01/17 12:21:32;;;;;;;11.50;2.72;;;9.40;84.80;;;;;;5068692;28;20033;-77
2022/01/17 12:24:19;;;;;;;15.77;2.80;;;9.40;84.70;;;;;;5065974;28;20024;-76
2022/01/17 12:27:02;;;;;;;10.40;2.30;;;9.40;84.60;;;;;;5070168;28;20070;-78
2022/01/17 12:29:39;;;;;;;12.77;2.83;;;9.50;84.60;;;;;;5066767;28;20020;-77
2022/01/17 12:32:07;;;;;;;9.52;2.60;;;9.50;84.50;;;;;;5060211;28;20407;-75
2022/01/17 12:34:43;;;;;;;13.75;2.40;;;9.50;84.40;;;;;;5068905;28;20095;-75
2022/01/17 12:37:33;;;;;;;9.38;2.35;;;9.50;84.40;;;;;;5069308;28;20048;-79
2022/01/17 12:40:22;;;;;;;13.63;2.85;;;9.50;84.30;;;;;;5057822;28;20487;-77
2022/01/17 12:43:08;;;;;;;12.50;2.85;;;9.60;84.30;;;;;;5066097;28;20035;-78
2022/01/17 12:45:39;;;;;;;12.52;2.65;;;9.60;84.20;;;;;;5067484;28;20107;-75
2022/01/17 12:48:14;;;;;;;10.93;2.20;;;9.60;84.10;;;;;;5069828;28;20150;-77
2022/01/17 12:50:42;;;;;;;12.52;2.90;;;9.60;84.10;;;;;;5061446;28;20033;-77
2022/01/17 12:53:10;;;;;;;15.95;3.15;;;9.60;84.00;;;;;;5062522;28;20024;-77
2022/01/17 12:56:03;;;;;;;12.15;2.72;;;9.60;84.00;;;;;;5060997;28;20023;-77
2022/01/17 12:58:32;;;;;;;10.90;2.75;;;9.60;83.90;;;;;;5054460;28;20483;-78
2022/01/17 13:01:09;;;;;;;12.27;2.75;;;9.70;83.90;;;;;;5057787;28;20040;-78
2022/01/17 13:03:37;;;;;;;8.52;2.47;;;9.70;83.90;;;;;;5078589;28;20027;-77
2022/01/17 13:06:06;;;;;;;14.35;2.88;;;9.70;83.80;;;;;;5069359;28;20024;-78
2022/01/17 13:08:32;;;;;;;16.83;3.83;;;9.70;83.70;;;;;;5075211;28;20020;-80
2022/01/17 13:10:59;;;;;;;11.75;3.47;;;9.70;83.70;;;;;;5075904;28;20042;-79
2022/01/17 13:13:25;;;;;;;11.68;2.60;;;9.70;83.70;;;;;;5075960;28;20016;-79
2022/01/17 13:16:00;;;;;;;15.07;2.92;;;9.70;83.70;;;;;;5073722;28;20081;-77
2022/01/17 13:18:28;;;;;;;14.15;2.95;;;9.70;83.60;;;;;;5059700;28;20098;-78
2022/01/17 13:20:55;;;;;;;14.77;2.97;;;9.70;83.60;;;;;;5065196;28;20024;-77
2022/01/17 13:23:32;;;;;;;13.50;3.00;;;9.70;83.60;;;;;;5070350;28;20935;-79
2022/01/17 13:25:58;;;;;;;12.85;2.63;;;9.70;83.60;;;;;;5060314;28;20028;-78
2022/01/17 13:28:24;;;;;;;15.80;2.83;;;9.70;83.60;;;;;;5067232;28;20388;-83
2022/01/17 13:30:51;;;;;;;11.63;3.15;;;9.80;83.60;;;;;;5068177;28;20090;-79